Latest Weather Observations for Puckapunyal-Lyon Hill (Defence)

IDV60801

Issued at 3:32 pm EDT Monday 30 March 2020 (issued every 10 minutes, with the page automatically refreshed every 10 minutes)

About weather observations | Map of weather stations | Latest weather observations for VIC | Other Formats
Station Details ID: 088167 Name: PUCKAPUNYAL LYON HILL (DEFENCE) Lat: -36.94 Lon: 145.05 Height: 193.0 m
Data from the previous 72 hours. | See also: Recent months at Puckapunyal-Lyon Hill (Defence)
Date/Time
EDT
Temp
°C
App
Temp
°C
Dew
Point
°C
Rel
Hum
%
Delta-T
°C
Wind Press
QNH
hPa
Press
MSL
hPa
Rain since
9am
mm
Dir  Spd
km/h
Gust
km/h
Spd
kts
Gust
kts
30/03:30pm 21.6 18.4 11.3 52 5.8 WNW 19 24 10 13 - - 0.0
30/03:00pm 21.4 18.9 11.1 52 5.7 WNW 15 19 8 10 - - 0.0
30/02:30pm 21.4 19.8 11.4 53 5.6 WNW 11 17 6 9 - - 0.0
30/02:00pm 21.6 20.3 11.3 52 5.8 NW 9 15 5 8 - - 0.0
30/01:30pm 20.8 20.1 12.0 57 5.0 W 7 13 4 7 - - 0.0
30/01:00pm 20.8 21.1 13.3 62 4.3 SW 4 9 2 5 - - 0.0
30/12:30pm 20.2 20.7 15.0 72 3.1 SE 6 9 3 5 - - 0.0
30/12:00pm 19.7 20.6 16.0 79 2.2 SE 6 9 3 5 - - 0.0
30/11:30am 18.2 18.8 15.3 83 1.7 SSW 6 9 3 5 - - 0.0
30/11:00am 17.6 18.5 16.5 93 0.7 WSW 7 11 4 6 - - 0.0
30/10:30am 16.9 19.3 16.9 100 0.0 CALM 0 0 0 0 - - 0.0
30/10:00am 16.0 18.0 16.0 100 0.0 CALM 0 4 0 2 - - 0.0
30/09:30am 15.8 17.7 15.8 100 0.0 CALM 0 4 0 2 - - 0.0
30/09:00am 15.4 16.4 15.4 100 0.0 ESE 4 6 2 3 - - 14.8
30/08:30am 15.4 17.2 15.4 100 0.0 CALM 0 0 0 0 - - 14.8
30/08:00am 15.2 16.5 15.2 100 0.0 WNW 2 4 1 2 - - 14.8
30/07:30am 15.3 16.3 15.3 100 0.0 NW 4 4 2 2 - - 14.8
30/07:00am 15.0 16.6 15.0 100 0.0 CALM 0 0 0 0 - - 14.8
30/06:30am 14.6 15.6 14.4 99 0.1 WSW 2 4 1 2 - - 14.8
30/06:00am 14.6 16.0 14.4 99 0.1 CALM 0 0 0 0 - - 14.6
30/05:30am 15.0 16.6 14.8 99 0.1 CALM 0 0 0 0 - - 14.6
30/05:00am 15.1 16.7 14.9 99 0.1 CALM 0 0 0 0 - - 14.6
30/04:30am 15.5 16.9 15.3 99 0.1 NW 2 4 1 2 - - 14.6
30/04:00am 15.4 16.3 15.2 99 0.1 NW 4 6 2 3 - - 14.6
30/03:30am 15.7 16.7 15.4 98 0.2 N 4 6 2 3 - - 14.6
30/03:00am 16.1 18.0 15.8 98 0.2 CALM 0 0 0 0 - - 14.6
30/02:30am 16.5 17.8 16.2 98 0.2 NE 4 6 2 3 - - 14.6
30/02:00am 16.4 17.7 16.2 99 0.1 NE 4 6 2 3 - - 14.6
30/01:30am 16.2 17.8 15.9 98 0.2 NE 2 6 1 3 - - 14.6
30/01:00am 16.4 17.7 16.1 98 0.2 NE 4 7 2 4 - - 14.6
30/12:30am 16.6 17.6 16.3 98 0.2 N 6 7 3 4 - - 14.6
30/12:00am 16.8 17.9 16.5 98 0.2 N 6 7 3 4 - - 14.4
 
Date/Time
EDT
Temp
°C
App
Temp
°C
Dew
Point
°C
Rel
Hum
%
Delta-T
°C
Wind Press
QNH
hPa
Press
MSL
hPa
Rain since
9am
mm
Dir  Spd
km/h
Gust
km/h
Spd
kts
Gust
kts
29/11:30pm 16.8 17.8 16.3 97 0.3 NNW 6 7 3 4 - - 14.4
29/11:00pm 17.2 18.1 16.6 96 0.4 NNE 7 9 4 5 - - 14.4
29/10:30pm 17.2 18.3 16.6 96 0.4 NE 6 9 3 5 - - 14.4
29/10:00pm 17.5 18.7 16.9 96 0.4 NE 6 7 3 4 - - 14.4
29/09:30pm 17.4 18.4 16.8 96 0.4 NNE 7 11 4 6 - - 14.4
29/09:00pm 17.6 18.7 17.0 96 0.4 NE 7 13 4 7 - - 14.4
29/08:30pm 17.4 18.5 16.6 95 0.5 N 6 7 3 4 - - 14.4
29/08:00pm 17.6 18.5 16.5 93 0.7 NNE 7 11 4 6 - - 14.4
29/07:30pm 17.8 17.9 16.5 92 0.8 NNE 11 17 6 9 - - 14.4
29/07:00pm 17.4 18.4 16.3 93 0.7 NE 6 7 3 4 - - 14.4
29/06:30pm 17.3 18.0 16.2 93 0.7 ESE 7 9 4 5 - - 14.4
29/06:00pm 17.0 17.4 16.2 95 0.5 E 9 13 5 7 - - 14.4
29/05:30pm 16.3 16.1 15.7 96 0.4 E 11 15 6 8 - - 14.4
29/05:00pm 15.7 14.6 15.2 97 0.3 E 15 20 8 11 - - 14.4
29/04:30pm 15.8 16.4 15.2 96 0.3 ESE 6 9 3 5 - - 14.4
29/04:00pm 15.8 13.5 14.7 93 0.6 WSW 20 43 11 23 - - 12.8
29/03:46pm 19.6 17.4 15.0 75 2.7 NNW 20 54 11 29 - - 5.0
29/03:45pm 19.6 18.1 16.3 81 2.0 NNE 19 46 10 25 - - 5.0
29/03:30pm 19.4 19.0 17.2 87 1.3 E 15 20 8 11 - - 5.0
29/03:00pm 19.2 18.3 16.8 86 1.5 ENE 17 22 9 12 - - 5.0
29/02:30pm 18.1 17.6 15.9 87 1.3 NNE 13 20 7 11 - - 5.0
29/02:00pm 19.7 18.6 15.4 76 2.6 N 15 24 8 13 - - 3.6
29/01:30pm 23.9 20.4 13.4 51 6.2 NNE 24 33 13 18 - - 0.0
29/01:00pm 22.2 19.9 14.1 60 4.8 NNE 19 28 10 15 - - 0.0
29/12:30pm 23.6 19.9 12.6 50 6.4 NNE 24 35 13 19 - - 0.0
29/12:00pm 22.4 17.5 12.4 53 5.7 NNE 30 39 16 21 - - 0.0
29/11:30am 22.9 18.6 12.2 51 6.1 NNE 26 37 14 20 - - 0.0
29/11:00am 22.2 16.5 11.9 52 5.8 NE 33 44 18 24 - - 0.0
29/10:30am 21.1 15.8 11.2 53 5.5 NNE 30 43 16 23 - - 0.0
29/10:00am 20.3 15.6 10.7 54 5.3 NE 26 43 14 23 - - 0.0
29/09:30am 19.8 15.0 10.2 54 5.2 NE 26 37 14 20 - - 0.0
29/09:00am 19.5 14.5 9.7 53 5.3 NE 26 35 14 19 - - 0.0
29/08:30am 18.4 14.6 9.2 55 4.9 NE 19 24 10 13 - - 0.0
29/08:00am 17.8 14.6 8.6 55 4.8 NE 15 26 8 14 - - 0.0
29/07:30am 17.8 15.0 8.4 54 4.9 NE 13 19 7 10 - - 0.0
29/07:00am 17.9 14.6 8.2 53 5.0 NE 15 24 8 13 - - 0.0
29/06:30am 18.0 15.1 8.0 52 5.2 NE 13 22 7 12 - - 0.0
29/06:00am 17.9 14.9 7.9 52 5.1 NNE 13 20 7 11 - - 0.0
29/05:30am 17.9 14.9 7.9 52 5.1 NE 13 19 7 10 - - 0.0
29/05:00am 17.6 14.9 7.4 51 5.2 NNE 11 15 6 8 - - 0.0
29/04:30am 18.5 14.6 7.3 48 5.7 NE 17 28 9 15 - - 0.0
29/04:00am 18.5 14.2 7.0 47 5.8 NE 19 26 10 14 - - 0.0
29/03:30am 18.5 14.2 7.0 47 5.8 NE 19 26 10 14 - - 0.0
29/03:00am 18.6 14.1 6.8 46 6.0 NE 20 32 11 17 - - 0.0
29/02:30am 18.5 14.1 6.7 46 5.9 NE 19 24 10 13 - - 0.0
29/02:00am 18.4 14.1 6.9 47 5.8 NE 19 24 10 13 - - 0.0
29/01:30am 18.6 14.6 6.8 46 6.0 NE 17 24 9 13 - - 0.0
29/01:00am 18.0 15.6 6.8 48 5.6 NE 9 13 5 7 - - 0.0
29/12:30am 18.8 15.6 6.9 46 6.0 NE 13 19 7 10 - - 0.0
29/12:00am 19.1 16.0 7.2 46 6.1 NE 13 19 7 10 - - 0.0
 
Date/Time
EDT
Temp
°C
App
Temp
°C
Dew
Point
°C
Rel
Hum
%
Delta-T
°C
Wind Press
QNH
hPa
Press
MSL
hPa
Rain since
9am
mm
Dir  Spd
km/h
Gust
km/h
Spd
kts
Gust
kts
28/11:30pm 19.4 16.7 7.2 45 6.2 NE 11 17 6 9 - - 0.0
28/11:00pm 19.3 16.9 7.1 45 6.2 NE 9 13 5 7 - - 0.0
28/10:30pm 19.7 17.0 7.4 45 6.3 NE 11 13 6 7 - - 0.0
28/10:00pm 20.4 17.7 7.4 43 6.7 NE 11 17 6 9 - - 0.0
28/09:30pm 21.6 18.1 7.4 40 7.4 NE 15 20 8 11 - - 0.0
28/09:00pm 21.9 18.5 7.7 40 7.5 NE 15 20 8 11 - - 0.0
28/08:30pm 22.0 19.1 8.2 41 7.3 NNE 13 17 7 9 - - 0.0
28/08:00pm 22.4 19.9 8.1 40 7.6 NE 11 17 6 9 - - 0.0
28/07:30pm 22.9 20.5 8.6 40 7.7 NE 11 15 6 8 - - 0.0
28/07:00pm 24.0 20.8 8.4 37 8.4 NNE 15 20 8 11 - - 0.0
28/06:30pm 24.9 20.7 8.4 35 8.9 NNE 20 30 11 16 - - 0.0
28/06:00pm 25.3 21.2 8.7 35 9.0 NNE 20 28 11 15 - - 0.0
28/05:30pm 25.6 21.6 9.0 35 9.1 NE 20 28 11 15 - - 0.0
28/05:00pm 25.1 21.4 9.4 37 8.6 NNE 19 28 10 15 - - 0.0
28/04:30pm 24.7 20.8 9.4 38 8.4 NNE 20 28 11 15 - - 0.0
28/04:00pm 25.1 21.4 9.4 37 8.6 NNE 19 33 10 18 - - 0.0
28/03:30pm 25.9 21.7 9.7 36 9.0 NNE 22 32 12 17 - - 0.0
28/03:00pm 26.1 22.4 10.3 37 8.9 N 20 32 11 17 - - 0.0
28/02:30pm 25.3 21.1 9.6 37 8.7 NNE 22 33 12 18 - - 0.0
28/02:00pm 25.1 21.3 9.8 38 8.5 NNE 20 32 11 17 - - 0.0
28/01:30pm 24.0 20.1 9.6 40 7.9 NNE 20 35 11 19 - - 0.0
28/01:00pm 23.3 19.6 10.0 43 7.3 NNE 20 30 11 16 - - 0.0
28/12:30pm 23.3 19.4 10.7 45 7.0 NNE 22 30 12 16 - - 0.0
28/12:00pm 22.0 18.3 10.2 47 6.5 NNE 20 28 11 15 - - 0.0
28/11:30am 21.5 17.0 10.0 48 6.3 NNE 24 33 13 18 - - 0.0
28/11:00am 20.9 17.8 10.4 51 5.8 NE 17 26 9 14 - - 0.0
28/10:30am 21.0 17.0 10.5 51 5.8 NE 22 35 12 19 - - 0.0
28/10:00am 19.3 15.6 10.3 56 4.9 NE 20 32 11 17 - - 0.0
28/09:30am 19.1 15.7 10.6 58 4.6 NE 19 28 10 15 - - 0.0
28/09:00am 18.3 14.8 10.2 59 4.4 NE 19 28 10 15 - - 0.0
28/08:30am 17.7 14.5 10.1 61 4.1 NE 17 24 9 13 - - 0.0
28/08:00am 17.6 14.1 10.2 62 4.0 NE 19 26 10 14 - - 0.0
28/07:30am 17.4 14.6 10.1 62 3.9 NE 15 19 8 10 - - 0.0
28/07:00am 17.3 14.8 9.7 61 4.0 NE 13 20 7 11 - - 0.0
28/06:30am 16.8 14.6 9.5 62 3.8 ENE 11 17 6 9 - - 0.0
28/06:00am 16.6 13.9 8.8 60 4.0 ENE 13 19 7 10 - - 0.0
28/05:30am 16.1 13.7 8.6 61 3.9 E 11 17 6 9 - - 0.0
28/05:00am 16.1 13.6 8.1 59 4.1 ENE 11 15 6 8 - - 0.0
28/04:30am 16.3 14.1 8.0 58 4.2 ENE 9 13 5 7 - - 0.0
28/04:00am 16.0 14.3 8.2 60 4.0 E 7 9 4 5 - - 0.0
28/03:30am 15.2 13.6 8.2 63 3.6 SE 6 6 3 3 - - 0.0
28/03:00am 16.2 14.5 8.4 60 4.0 SSE 7 9 4 5 - - 0.0
28/02:30am 16.2 14.5 8.2 59 4.1 SSE 7 9 4 5 - - 0.0
28/02:00am 16.1 14.3 7.8 58 4.2 SSE 7 9 4 5 - - 0.0
28/01:30am 16.4 14.5 7.6 56 4.5 SSE 7 9 4 5 - - 0.0
28/01:00am 16.9 15.3 7.8 55 4.6 SE 6 7 3 4 - - 0.0
28/12:30am 17.4 15.7 7.7 53 4.9 SE 6 7 3 4 - - 0.0
28/12:00am 17.5 15.7 7.8 53 5.0 SE 7 7 4 4 - - 0.0
 
Date/Time
EDT
Temp
°C
App
Temp
°C
Dew
Point
°C
Rel
Hum
%
Delta-T
°C
Wind Press
QNH
hPa
Press
MSL
hPa
Rain since
9am
mm
Dir  Spd
km/h
Gust
km/h
Spd
kts
Gust
kts
27/11:30pm 17.8 15.9 7.5 51 5.2 ESE 7 11 4 6 - - 0.0
27/11:00pm 19.0 17.1 7.4 47 5.9 SE 7 9 4 5 - - 0.0
27/10:30pm 19.7 17.8 7.4 45 6.3 SE 7 7 4 4 - - 0.0
27/10:00pm 20.9 19.8 6.8 40 7.2 ENE 2 4 1 2 - - 0.0
27/09:30pm 21.4 20.6 6.5 38 7.6 CALM 0 0 0 0 - - 0.0
27/09:00pm 21.4 19.9 6.9 39 7.5 N 4 6 2 3 - - 0.0
27/08:30pm 21.9 20.0 6.6 37 7.9 E 6 7 3 4 - - 0.0
27/08:00pm 22.4 20.5 6.6 36 8.1 ENE 6 6 3 3 - - 0.0
27/07:30pm 22.9 21.5 7.1 36 8.2 ENE 4 4 2 2 - - 0.0
27/07:00pm 23.5 22.1 7.2 35 8.6 ENE 4 6 2 3 - - 0.0
27/06:30pm 24.2 21.8 6.9 33 9.1 ENE 9 11 5 6 - - 0.0
27/06:00pm 25.0 22.5 6.7 31 9.6 E 9 17 5 9 - - 0.0
27/05:30pm 25.4 22.4 6.1 29 10.0 ENE 11 17 6 9 - - 0.0
27/05:00pm 25.8 23.9 7.4 31 9.8 ENE 7 15 4 8 - - 0.0
27/04:30pm 25.8 22.7 7.4 31 9.8 NE 13 20 7 11 - - 0.0
27/04:00pm 26.1 23.5 7.7 31 9.9 NE 11 17 6 9 - - 0.0

Other formats

Comma delimited format used in spreadsheet applications
http://www.bom.gov.au/fwo/IDV60801/IDV60801.94858.axf

JavaScript Object Notation format (JSON) in row-major order
http://www.bom.gov.au/fwo/IDV60801/IDV60801.94858.json

Data quality

Most of these data are generated automatically and are frequently updated. Quality checks on data are not normally performed. It is possible for incorrect values to appear. Refer to information at About Latest Weather Observations and please check the disclaimer before using these data.